Time;durP1;ratioP1;P1;durP2;ratioP2;P2;SDS_P1;SDS_P2;PMS_P1;PMS_P2;Temp;Humidity;BMP_temperature;BMP_pressure;BME280_temperature;BME280_humidity;BME280_pressure;Samples;Min_cycle;Max_cycle;Signal;HPM_P1;HPM_P2
2024/01/18 00:01:09;;;;;;;23.15;10.80;;;-1.00;99.90;;;;;;5030218;28;20045;-54
2024/01/18 00:03:39;;;;;;;21.55;9.90;;;-1.40;99.90;;;;;;5112239;28;20505;-53
2024/01/18 00:06:05;;;;;;;20.05;9.52;;;-1.60;99.90;;;;;;5112190;28;20028;-55
2024/01/18 00:08:31;;;;;;;17.98;9.15;;;-1.60;99.90;;;;;;5030226;28;20091;-53
2024/01/18 00:10:56;;;;;;;15.25;8.95;;;-1.50;99.90;;;;;;5027536;28;20041;-51
2024/01/18 00:13:22;;;;;;;20.05;9.10;;;-1.20;99.90;;;;;;5029286;28;20459;-54
2024/01/18 00:15:48;;;;;;;23.27;9.00;;;-1.20;99.90;;;;;;5028394;28;20117;-51
2024/01/18 00:18:13;;;;;;;15.30;8.35;;;-1.10;99.90;;;;;;5067761;28;20125;-54
2024/01/18 00:20:39;;;;;;;17.52;8.13;;;-1.10;99.90;;;;;;5108216;28;20046;-55
2024/01/18 00:23:05;;;;;;;16.88;8.23;;;-1.20;99.90;;;;;;5110916;28;20073;-52
2024/01/18 00:25:31;;;;;;;20.67;8.20;;;-0.80;99.90;;;;;;5108717;28;20035;-53
2024/01/18 00:27:56;;;;;;;18.90;8.82;;;-1.40;99.90;;;;;;5111523;28;20043;-53
2024/01/18 00:30:22;;;;;;;17.15;8.63;;;-1.20;99.90;;;;;;5111693;28;20046;-53
2024/01/18 00:32:48;;;;;;;14.73;8.23;;;-1.30;99.90;;;;;;5111990;28;20046;-54
2024/01/18 00:35:13;;;;;;;14.68;7.53;;;-1.30;99.90;;;;;;5111755;28;20067;-54
2024/01/18 00:37:39;;;;;;;18.33;8.35;;;-1.20;99.90;;;;;;5111686;28;20118;-50
2024/01/18 00:40:06;;;;;;;18.35;9.75;;;-1.30;99.90;;;;;;5111109;28;20036;-52
2024/01/18 00:42:32;;;;;;;19.55;8.82;;;-1.30;99.90;;;;;;5028345;28;20038;-55
2024/01/18 00:44:58;;;;;;;17.98;8.30;;;-1.20;99.90;;;;;;5084807;28;20057;-54
2024/01/18 00:47:23;;;;;;;16.85;8.70;;;-1.40;99.90;;;;;;5111696;28;20047;-54
2024/01/18 00:49:49;;;;;;;17.90;8.18;;;-1.00;99.90;;;;;;5111102;28;20058;-53
2024/01/18 00:52:15;;;;;;;16.45;7.38;;;-0.90;99.90;;;;;;5111278;28;20074;-56
2024/01/18 00:54:40;;;;;;;18.30;7.50;;;-1.40;99.90;;;;;;5105114;28;20106;-53
2024/01/18 00:57:06;;;;;;;15.65;8.48;;;-1.10;99.90;;;;;;5111046;28;20043;-53
2024/01/18 00:59:32;;;;;;;12.45;6.88;;;-1.20;99.90;;;;;;5111234;28;20031;-52
2024/01/18 01:01:57;;;;;;;15.52;6.88;;;-1.20;99.90;;;;;;5089828;28;20035;-53
2024/01/18 01:04:23;;;;;;;11.82;6.10;;;-1.40;99.90;;;;;;5094715;28;20035;-55
2024/01/18 01:06:49;;;;;;;23.40;6.85;;;-1.00;99.90;;;;;;5111141;28;20039;-53
2024/01/18 01:09:14;;;;;;;15.82;6.35;;;-1.50;99.90;;;;;;5106353;28;20065;-54
2024/01/18 01:11:40;;;;;;;14.23;6.07;;;-1.20;99.90;;;;;;5111071;28;20059;-55
2024/01/18 01:14:06;;;;;;;11.52;5.80;;;-1.50;99.90;;;;;;5111113;28;20104;-54
2024/01/18 01:16:31;;;;;;;14.55;5.97;;;-1.20;99.90;;;;;;5105019;28;20036;-51
2024/01/18 01:18:57;;;;;;;13.90;4.95;;;-1.40;99.90;;;;;;5032416;28;20044;-55
2024/01/18 01:21:23;;;;;;;12.35;5.75;;;-1.60;99.90;;;;;;5092480;28;20035;-55
2024/01/18 01:23:51;;;;;;;10.80;5.72;;;-1.50;99.90;;;;;;5097477;28;20467;-54
2024/01/18 01:26:17;;;;;;;12.38;5.32;;;-1.30;99.90;;;;;;5028687;28;20097;-50
2024/01/18 01:28:43;;;;;;;10.07;4.43;;;-1.10;99.90;;;;;;5026785;28;20041;-53
2024/01/18 01:31:09;;;;;;;12.05;5.35;;;-1.40;99.90;;;;;;5027532;28;20065;-57
2024/01/18 01:33:37;;;;;;;9.48;4.63;;;-1.40;99.90;;;;;;5067269;28;20442;-55
2024/01/18 01:36:05;;;;;;;14.13;4.97;;;-1.50;99.90;;;;;;5026372;28;20045;-52
2024/01/18 01:38:30;;;;;;;14.50;5.15;;;-1.10;99.90;;;;;;5027610;28;20045;-55
2024/01/18 01:40:56;;;;;;;12.45;4.47;;;-1.50;99.90;;;;;;5027656;28;20106;-52
2024/01/18 01:43:23;;;;;;;10.23;4.13;;;-1.40;99.90;;;;;;5027078;28;20556;-55
2024/01/18 01:45:48;;;;;;;12.48;5.30;;;-1.40;99.90;;;;;;5106412;28;20035;-52
2024/01/18 01:48:14;;;;;;;13.55;4.50;;;-1.50;99.90;;;;;;5075449;28;20535;-54
2024/01/18 01:50:40;;;;;;;9.13;4.82;;;-1.30;99.90;;;;;;5102634;28;20094;-52
2024/01/18 01:53:07;;;;;;;13.80;5.00;;;-1.20;99.90;;;;;;5113211;28;20066;-50
2024/01/18 01:55:33;;;;;;;13.40;4.68;;;-1.40;99.90;;;;;;5107976;28;20032;-53
2024/01/18 01:58:00;;;;;;;8.77;4.65;;;-1.40;99.90;;;;;;5114473;28;20044;-54
2024/01/18 02:00:26;;;;;;;9.43;4.53;;;-1.60;99.90;;;;;;5006054;28;20046;-54
2024/01/18 02:02:52;;;;;;;11.45;4.38;;;-1.30;99.90;;;;;;5101480;28;20039;-54
2024/01/18 02:05:18;;;;;;;11.02;4.38;;;-1.40;99.90;;;;;;5103028;28;20075;-53
2024/01/18 02:07:45;;;;;;;11.73;4.40;;;-1.70;99.90;;;;;;5111616;28;20040;-56
2024/01/18 02:10:11;;;;;;;9.25;4.00;;;-1.70;99.90;;;;;;5095095;28;20115;-52
2024/01/18 02:12:38;;;;;;;10.90;4.32;;;-1.50;99.90;;;;;;5090230;27;20494;-55
2024/01/18 02:15:05;;;;;;;9.88;4.13;;;-1.70;99.90;;;;;;5078358;28;20054;-56
2024/01/18 02:17:31;;;;;;;14.70;4.30;;;-1.70;99.90;;;;;;5089145;28;20126;-53
2024/01/18 02:19:57;;;;;;;12.43;5.32;;;-1.40;99.90;;;;;;5093217;28;20518;-57
2024/01/18 02:22:27;;;;;;;14.32;3.85;;;-1.50;99.90;;;;;;5082891;28;20069;-53
2024/01/18 02:24:56;;;;;;;9.88;4.32;;;-1.70;99.90;;;;;;5083156;28;20034;-53
2024/01/18 02:27:23;;;;;;;11.35;4.40;;;-1.50;99.90;;;;;;5032871;28;20041;-52
2024/01/18 02:29:48;;;;;;;9.00;4.15;;;-1.90;99.90;;;;;;5030224;28;20078;-52
2024/01/18 02:32:14;;;;;;;9.43;3.47;;;-1.60;99.90;;;;;;5072256;28;20069;-52
2024/01/18 02:34:40;;;;;;;9.73;3.95;;;-1.50;99.90;;;;;;5096546;28;20043;-54
2024/01/18 02:37:07;;;;;;;8.00;4.10;;;-1.50;99.90;;;;;;5107177;28;20058;-54
2024/01/18 02:39:33;;;;;;;13.25;3.55;;;-1.90;99.90;;;;;;5105541;28;20028;-55
2024/01/18 02:41:59;;;;;;;8.77;3.55;;;-1.60;99.90;;;;;;5108690;28;20035;-54
2024/01/18 02:44:26;;;;;;;6.00;2.85;;;-1.70;99.90;;;;;;5113861;28;20043;-55
2024/01/18 02:46:52;;;;;;;11.10;3.17;;;-1.80;99.90;;;;;;5114185;28;20035;-53
2024/01/18 02:49:18;;;;;;;9.10;2.35;;;-1.70;99.90;;;;;;5108090;27;20038;-53
2024/01/18 02:51:44;;;;;;;8.10;2.55;;;-2.20;99.90;;;;;;5029970;28;20445;-50
2024/01/18 02:54:10;;;;;;;7.72;3.08;;;-2.10;99.90;;;;;;5030017;28;20049;-53
2024/01/18 02:56:37;;;;;;;6.95;2.58;;;-2.10;99.90;;;;;;5030288;28;20522;-53
2024/01/18 02:59:03;;;;;;;8.95;2.63;;;-1.70;99.90;;;;;;5082141;28;20498;-51
2024/01/18 03:01:30;;;;;;;9.10;2.58;;;-1.80;99.90;;;;;;5108818;28;20039;-51
2024/01/18 03:03:56;;;;;;;7.68;2.72;;;-1.80;99.90;;;;;;5113375;27;20115;-56
2024/01/18 03:06:22;;;;;;;6.32;2.45;;;-0.50;99.90;;;;;;5113599;28;20115;-54
2024/01/18 03:08:48;;;;;;;6.63;2.58;;;-1.80;99.90;;;;;;5107096;28;20092;-54
2024/01/18 03:11:14;;;;;;;7.75;2.45;;;-2.20;99.90;;;;;;5107087;28;20569;-51
2024/01/18 03:13:40;;;;;;;10.43;2.90;;;-1.90;99.90;;;;;;5029625;28;20117;-54
2024/01/18 03:16:08;;;;;;;11.57;2.40;;;-1.80;99.90;;;;;;5077300;28;20680;-52
2024/01/18 03:18:34;;;;;;;8.15;2.13;;;-1.90;99.90;;;;;;5076855;28;20387;-53
2024/01/18 03:21:04;;;;;;;5.20;2.15;;;-1.80;99.90;;;;;;5102949;28;20492;-51
2024/01/18 03:23:29;;;;;;;3.83;1.88;;;-1.90;99.90;;;;;;5106707;28;20039;-53
2024/01/18 03:25:55;;;;;;;8.75;2.92;;;-2.20;99.90;;;;;;5106431;28;20359;-53
2024/01/18 03:28:21;;;;;;;8.00;2.13;;;-1.90;99.90;;;;;;5095612;28;20054;-56
2024/01/18 03:30:46;;;;;;;9.30;2.20;;;-2.00;99.90;;;;;;5103421;28;20071;-54
2024/01/18 03:33:12;;;;;;;7.88;1.77;;;-1.90;99.90;;;;;;5109738;28;20093;-58
2024/01/18 03:35:38;;;;;;;6.72;1.90;;;-1.90;99.90;;;;;;5110177;28;20049;-55
2024/01/18 03:38:04;;;;;;;7.38;2.00;;;-2.20;99.90;;;;;;5109825;28;20135;-56
2024/01/18 03:40:29;;;;;;;7.93;2.38;;;-2.40;99.90;;;;;;5107655;27;20152;-56
2024/01/18 03:42:55;;;;;;;6.95;2.08;;;-1.90;99.90;;;;;;5109643;28;20462;-56
2024/01/18 03:45:21;;;;;;;6.60;1.83;;;-2.00;99.90;;;;;;5110744;28;20424;-54
2024/01/18 03:47:47;;;;;;;5.68;2.00;;;-2.00;99.90;;;;;;5112204;28;20433;-56
2024/01/18 03:50:12;;;;;;;5.25;1.73;;;-2.10;99.90;;;;;;5031162;28;20042;-55
2024/01/18 03:52:38;;;;;;;4.68;1.63;;;-2.00;99.90;;;;;;5061614;28;20032;-56
2024/01/18 03:55:05;;;;;;;4.88;2.10;;;-2.20;99.90;;;;;;5112386;28;20054;-54
2024/01/18 03:57:31;;;;;;;3.05;1.42;;;-2.00;99.90;;;;;;5112318;28;20453;-56
2024/01/18 03:59:57;;;;;;;4.45;1.70;;;-2.20;99.90;;;;;;5112118;28;20114;-56
2024/01/18 04:02:22;;;;;;;7.13;1.75;;;-2.30;99.90;;;;;;5091728;28;20375;-56
2024/01/18 04:04:48;;;;;;;5.55;1.10;;;-2.00;99.90;;;;;;5095741;28;20036;-54
2024/01/18 04:07:15;;;;;;;7.32;1.58;;;-2.40;99.90;;;;;;5104128;28;20035;-57
2024/01/18 04:09:40;;;;;;;6.45;1.60;;;-2.50;99.90;;;;;;5111191;28;20052;-54
2024/01/18 04:12:07;;;;;;;8.07;1.67;;;-2.10;99.90;;;;;;5112038;28;20555;-56
2024/01/18 04:14:33;;;;;;;3.17;1.15;;;-2.40;99.90;;;;;;5105266;28;20118;-56
2024/01/18 04:16:58;;;;;;;4.88;1.63;;;-2.20;99.90;;;;;;5031060;28;20135;-54
2024/01/18 04:19:24;;;;;;;7.88;1.50;;;-2.50;99.90;;;;;;5028188;28;20039;-53
2024/01/18 04:21:50;;;;;;;4.45;1.27;;;-2.20;99.90;;;;;;5027659;28;20392;-51
2024/01/18 04:24:16;;;;;;;7.03;1.50;;;-2.60;99.90;;;;;;5028807;28;20495;-57
2024/01/18 04:26:41;;;;;;;6.53;1.60;;;-2.40;99.90;;;;;;5028858;28;20038;-55
2024/01/18 04:29:07;;;;;;;5.80;1.67;;;-2.50;99.90;;;;;;5028716;28;20054;-56
2024/01/18 04:31:33;;;;;;;6.53;1.20;;;-2.60;99.90;;;;;;5028792;28;20037;-56
2024/01/18 04:33:59;;;;;;;5.80;1.60;;;-2.50;99.90;;;;;;5033645;28;20074;-54
2024/01/18 04:36:25;;;;;;;5.25;1.70;;;-2.70;99.90;;;;;;5111364;28;20052;-57
2024/01/18 04:38:51;;;;;;;4.03;1.60;;;-2.70;99.90;;;;;;5111464;28;20039;-52
2024/01/18 04:41:17;;;;;;;3.58;1.35;;;-2.70;99.90;;;;;;5111518;28;20039;-56
2024/01/18 04:43:43;;;;;;;5.85;1.42;;;-2.70;99.90;;;;;;5093582;28;20039;-55
2024/01/18 04:46:10;;;;;;;6.47;1.42;;;-2.50;99.90;;;;;;5103078;28;20043;-54
2024/01/18 04:48:40;;;;;;;5.38;1.50;;;-2.40;99.90;;;;;;5006391;28;20038;-56
2024/01/18 04:51:06;;;;;;;4.57;1.20;;;-2.70;99.90;;;;;;5105541;28;20043;-53
2024/01/18 04:53:31;;;;;;;7.20;1.60;;;-2.60;99.90;;;;;;5108739;28;20531;-54
2024/01/18 04:55:57;;;;;;;3.55;1.17;;;-2.90;99.90;;;;;;5102869;28;20101;-57
2024/01/18 04:58:23;;;;;;;4.63;1.20;;;-2.80;99.90;;;;;;5111135;28;20039;-57
2024/01/18 05:00:49;;;;;;;4.88;1.13;;;-2.90;99.90;;;;;;5031495;28;20049;-51
2024/01/18 05:03:15;;;;;;;5.75;1.45;;;-2.90;99.90;;;;;;5028052;28;20037;-56
2024/01/18 05:05:41;;;;;;;3.65;0.95;;;-2.90;99.90;;;;;;5028279;28;20048;-52
2024/01/18 05:08:07;;;;;;;4.45;1.30;;;-2.50;99.90;;;;;;5026322;28;20049;-55
2024/01/18 05:10:33;;;;;;;5.22;1.13;;;-2.40;99.90;;;;;;5081845;28;20077;-53
2024/01/18 05:12:59;;;;;;;6.60;1.30;;;-2.80;99.90;;;;;;5111114;28;20059;-53
2024/01/18 05:15:25;;;;;;;6.50;2.10;;;-2.80;99.90;;;;;;5111167;28;20042;-55
2024/01/18 05:17:51;;;;;;;5.32;1.30;;;-2.40;99.90;;;;;;5111334;28;20410;-55
2024/01/18 05:20:17;;;;;;;5.68;1.42;;;-2.60;99.90;;;;;;5108333;28;20043;-55
2024/01/18 05:22:43;;;;;;;6.80;1.42;;;-2.40;99.90;;;;;;5031099;28;20033;-53
2024/01/18 05:25:09;;;;;;;5.47;1.30;;;-2.20;99.90;;;;;;5060436;28;20124;-54
2024/01/18 05:27:36;;;;;;;6.30;1.33;;;-2.50;99.90;;;;;;5112687;28;20419;-52
2024/01/18 05:30:04;;;;;;;5.40;1.25;;;-2.20;99.90;;;;;;5115063;28;20074;-55
2024/01/18 05:32:30;;;;;;;6.75;1.10;;;-2.30;99.90;;;;;;5092021;28;20386;-56
2024/01/18 05:34:56;;;;;;;4.82;1.23;;;-2.50;99.90;;;;;;5105196;27;20043;-54
2024/01/18 05:37:22;;;;;;;5.43;1.52;;;-2.80;99.90;;;;;;5115065;28;20043;-53
2024/01/18 05:39:53;;;;;;;4.35;1.23;;;-2.80;99.90;;;;;;5114850;28;20395;-51
2024/01/18 05:42:19;;;;;;;3.47;1.20;;;-2.40;99.90;;;;;;5108356;28;20096;-52
2024/01/18 05:44:48;;;;;;;3.85;1.02;;;-2.30;99.90;;;;;;5115281;28;20499;-56
2024/01/18 05:47:14;;;;;;;8.27;1.52;;;-2.50;99.90;;;;;;5114958;28;20048;-53
2024/01/18 05:49:39;;;;;;;4.13;1.30;;;-2.80;99.90;;;;;;5031581;28;20051;-55
2024/01/18 05:52:06;;;;;;;4.25;1.30;;;-2.30;99.90;;;;;;5114778;28;20069;-55
2024/01/18 05:54:33;;;;;;;2.67;1.08;;;-2.40;99.90;;;;;;5114917;28;20046;-57
2024/01/18 05:57:00;;;;;;;3.80;1.10;;;-2.40;99.90;;;;;;5107468;28;20126;-54
2024/01/18 05:59:26;;;;;;;2.63;1.00;;;-2.80;99.90;;;;;;5114672;28;20042;-56
2024/01/18 06:01:52;;;;;;;4.75;1.20;;;-2.60;99.90;;;;;;5114611;28;20386;-55
2024/01/18 06:04:17;;;;;;;5.55;1.50;;;-2.40;99.90;;;;;;5106768;28;20130;-52
2024/01/18 06:06:43;;;;;;;7.38;1.30;;;-2.30;99.90;;;;;;5044071;28;20360;-55
2024/01/18 06:09:09;;;;;;;6.13;1.73;;;-2.60;99.90;;;;;;5114137;28;20047;-55
2024/01/18 06:11:35;;;;;;;5.18;1.60;;;-2.80;99.90;;;;;;5105523;28;20428;-52
2024/01/18 06:14:01;;;;;;;6.38;1.20;;;-2.00;99.90;;;;;;5108891;28;20035;-56
2024/01/18 06:16:26;;;;;;;5.95;1.40;;;-2.30;99.90;;;;;;5103491;28;20043;-55
2024/01/18 06:18:53;;;;;;;4.13;1.10;;;-2.80;99.90;;;;;;5083568;28;20036;-56
2024/01/18 06:21:19;;;;;;;6.05;1.35;;;-2.70;99.90;;;;;;5023127;28;20119;-56
2024/01/18 06:23:45;;;;;;;4.70;1.15;;;-2.80;99.90;;;;;;5107524;28;20389;-54
2024/01/18 06:26:11;;;;;;;4.90;1.00;;;-2.80;99.90;;;;;;5111068;28;20206;-53
2024/01/18 06:28:40;;;;;;;3.95;1.00;;;-2.40;99.90;;;;;;5107208;28;20065;-56
2024/01/18 06:31:06;;;;;;;1.98;0.80;;;-2.30;99.90;;;;;;5030451;28;20516;-54
2024/01/18 06:33:31;;;;;;;7.55;1.20;;;-2.60;99.90;;;;;;5031565;28;20440;-56
2024/01/18 06:35:57;;;;;;;6.15;1.10;;;-2.10;99.90;;;;;;5114121;28;20031;-58
2024/01/18 06:38:23;;;;;;;1.95;0.77;;;-2.20;99.90;;;;;;5031120;28;20468;-57
2024/01/18 06:40:49;;;;;;;3.15;1.00;;;-2.10;99.90;;;;;;5030537;28;20507;-53
2024/01/18 06:43:15;;;;;;;6.03;1.10;;;-2.10;99.90;;;;;;5028640;28;20030;-57
2024/01/18 06:45:41;;;;;;;7.68;1.73;;;-2.00;99.90;;;;;;5030533;28;20056;-55
2024/01/18 06:48:07;;;;;;;4.95;1.00;;;-2.00;99.90;;;;;;5062805;28;20043;-56
2024/01/18 06:50:33;;;;;;;5.88;1.20;;;-2.00;99.90;;;;;;5106074;28;20084;-55
2024/01/18 06:52:59;;;;;;;2.60;0.77;;;-2.50;99.90;;;;;;5033106;28;20042;-55
2024/01/18 06:55:29;;;;;;;4.03;1.10;;;-2.60;99.90;;;;;;5108236;28;20040;-54
2024/01/18 06:57:54;;;;;;;2.13;0.93;;;-2.10;99.90;;;;;;5107412;28;20653;-56
2024/01/18 07:00:23;;;;;;;9.10;1.13;;;-2.50;99.90;;;;;;5104465;28;20044;-54
2024/01/18 07:02:52;;;;;;;2.10;0.95;;;-2.50;99.90;;;;;;5081511;28;20039;-55
2024/01/18 07:05:18;;;;;;;4.85;1.00;;;-2.30;99.90;;;;;;5035420;28;20044;-57
2024/01/18 07:07:44;;;;;;;7.25;1.10;;;-2.50;99.90;;;;;;5110645;28;20043;-55
2024/01/18 07:10:09;;;;;;;4.85;0.80;;;-2.50;99.90;;;;;;5112407;28;20176;-58
2024/01/18 07:12:35;;;;;;;3.75;1.10;;;-2.20;99.90;;;;;;5028692;28;20049;-52
2024/01/18 07:15:01;;;;;;;5.03;0.90;;;-2.70;99.90;;;;;;5112585;28;20035;-56
2024/01/18 07:17:26;;;;;;;4.32;0.90;;;-2.70;99.90;;;;;;5104981;28;20032;-56
2024/01/18 07:19:56;;;;;;;5.25;1.13;;;-2.60;99.90;;;;;;5081275;28;20031;-56
2024/01/18 07:22:25;;;;;;;3.35;1.25;;;-2.70;99.90;;;;;;5083267;28;20267;-56
2024/01/18 07:24:52;;;;;;;1.98;0.80;;;-2.50;99.90;;;;;;5079733;28;20046;-54
2024/01/18 07:27:17;;;;;;;6.75;1.00;;;-2.70;99.90;;;;;;5088341;28;20051;-54
2024/01/18 07:29:43;;;;;;;4.78;1.00;;;-2.60;99.90;;;;;;5111763;28;20104;-54
2024/01/18 07:32:09;;;;;;;5.55;1.42;;;-2.60;99.90;;;;;;5113153;28;20043;-53
2024/01/18 07:34:35;;;;;;;7.68;1.55;;;-2.70;99.90;;;;;;5038117;28;22198;-53
2024/01/18 07:37:01;;;;;;;5.37;1.67;;;-2.50;99.90;;;;;;5107326;28;20138;-54
2024/01/18 07:39:27;;;;;;;3.17;1.00;;;-2.50;99.90;;;;;;5032162;28;20125;-56
2024/01/18 07:41:53;;;;;;;4.97;1.10;;;-2.50;99.90;;;;;;5029418;28;20056;-55
2024/01/18 07:44:19;;;;;;;3.28;1.13;;;-2.90;99.90;;;;;;5029572;28;20037;-53
2024/01/18 07:46:45;;;;;;;5.75;1.52;;;-2.70;99.90;;;;;;5030089;28;20125;-53
2024/01/18 07:49:11;;;;;;;6.53;1.25;;;-3.10;99.90;;;;;;5097154;28;20055;-56
2024/01/18 07:51:36;;;;;;;5.00;1.17;;;-2.90;99.90;;;;;;5110972;28;20118;-51
2024/01/18 07:54:03;;;;;;;8.30;1.67;;;-2.80;99.90;;;;;;5027814;28;20037;-54
2024/01/18 07:56:29;;;;;;;8.52;1.67;;;-2.80;99.90;;;;;;5066164;28;20508;-54
2024/01/18 07:58:55;;;;;;;7.03;1.77;;;-3.10;99.90;;;;;;5112221;28;20066;-55
2024/01/18 08:01:21;;;;;;;7.50;1.52;;;-2.60;99.90;;;;;;5112130;28;20031;-56
2024/01/18 08:03:46;;;;;;;2.92;1.30;;;-3.00;99.90;;;;;;5112416;28;20028;-53
2024/01/18 08:06:12;;;;;;;3.25;1.52;;;-2.80;99.90;;;;;;5112522;28;20119;-54
2024/01/18 08:08:40;;;;;;;6.53;1.70;;;-3.10;99.90;;;;;;5112162;28;20173;-55
2024/01/18 08:11:14;;;;;;;5.10;2.03;;;-2.50;99.90;;;;;;5111742;28;20063;-56
2024/01/18 08:13:40;;;;;;;4.30;1.42;;;-2.60;99.90;;;;;;5078068;28;20135;-51
2024/01/18 08:16:10;;;;;;;4.47;1.52;;;-3.00;99.90;;;;;;5084479;28;20514;-52
2024/01/18 08:18:36;;;;;;;5.10;1.30;;;-2.50;99.90;;;;;;5098925;28;20051;-52
2024/01/18 08:21:05;;;;;;;7.82;1.30;;;-2.70;99.90;;;;;;5111803;28;20120;-57
2024/01/18 08:23:31;;;;;;;3.35;1.17;;;-2.50;99.90;;;;;;5112036;28;20114;-55
2024/01/18 08:25:56;;;;;;;3.85;1.50;;;-2.50;99.90;;;;;;5028808;28;20124;-54
2024/01/18 08:28:23;;;;;;;6.70;1.80;;;-2.80;99.90;;;;;;5017897;28;20069;-55
2024/01/18 08:30:49;;;;;;;4.57;1.67;;;-2.80;99.90;;;;;;5004022;28;20057;-54
2024/01/18 08:33:15;;;;;;;8.75;1.67;;;-2.60;99.90;;;;;;4998901;28;20122;-56
2024/01/18 08:35:41;;;;;;;4.70;2.00;;;-2.50;99.90;;;;;;5017155;28;20035;-52
2024/01/18 08:38:06;;;;;;;3.75;1.73;;;-2.50;99.90;;;;;;5002322;28;20041;-57
2024/01/18 08:40:34;;;;;;;7.40;1.80;;;-2.30;99.90;;;;;;5001315;28;20058;-55
2024/01/18 08:43:00;;;;;;;4.47;1.50;;;-2.60;99.90;;;;;;5022394;28;20033;-54
2024/01/18 08:45:26;;;;;;;7.47;1.75;;;-2.40;99.90;;;;;;5015439;28;20042;-54
2024/01/18 08:47:52;;;;;;;8.10;1.80;;;-2.90;99.90;;;;;;5026751;28;20033;-54
2024/01/18 08:50:20;;;;;;;4.90;1.55;;;-2.80;99.90;;;;;;5016056;28;20041;-53
2024/01/18 08:52:46;;;;;;;6.53;1.90;;;-2.50;99.90;;;;;;4999665;28;20490;-52
2024/01/18 08:55:12;;;;;;;5.95;2.05;;;-2.80;99.90;;;;;;5015419;28;20031;-55
2024/01/18 08:57:38;;;;;;;8.80;2.00;;;-2.30;99.90;;;;;;5044360;28;20553;-56
2024/01/18 09:00:05;;;;;;;9.00;2.80;;;-2.70;99.90;;;;;;5086609;28;20043;-52
2024/01/18 09:02:30;;;;;;;9.07;2.63;;;-2.70;99.90;;;;;;5038912;28;20045;-54
2024/01/18 09:04:56;;;;;;;6.55;2.30;;;-2.60;99.90;;;;;;5049347;28;20054;-55
2024/01/18 09:07:23;;;;;;;7.32;1.73;;;-2.50;99.90;;;;;;5043541;28;20043;-54
2024/01/18 09:09:49;;;;;;;8.77;1.60;;;-1.90;99.90;;;;;;5035045;28;20046;-54
2024/01/18 09:12:15;;;;;;;4.18;1.52;;;-2.10;99.90;;;;;;5073681;28;20532;-57
2024/01/18 09:14:44;;;;;;;9.48;1.73;;;-2.30;99.90;;;;;;5069834;28;20046;-54
2024/01/18 09:17:10;;;;;;;4.95;1.55;;;-1.50;99.90;;;;;;5065370;28;20518;-52
2024/01/18 09:19:36;;;;;;;7.05;2.22;;;-2.10;99.90;;;;;;5045489;28;20040;-54
2024/01/18 09:22:02;;;;;;;8.38;2.42;;;-1.50;99.90;;;;;;5103361;28;20035;-54
2024/01/18 09:24:28;;;;;;;6.63;1.80;;;-1.60;99.90;;;;;;5069464;28;20092;-54
2024/01/18 09:26:54;;;;;;;5.10;1.77;;;-1.20;99.90;;;;;;5089923;28;20059;-56
2024/01/18 09:29:20;;;;;;;7.97;2.40;;;-1.10;99.90;;;;;;5092815;28;20074;-55
2024/01/18 09:31:46;;;;;;;5.10;2.10;;;-1.00;99.90;;;;;;5087452;28;20044;-55
2024/01/18 09:34:11;;;;;;;6.85;2.55;;;-1.60;99.90;;;;;;5020863;28;20580;-52
2024/01/18 09:36:37;;;;;;;6.20;1.83;;;-0.90;99.90;;;;;;5111160;28;20403;-55
2024/01/18 09:39:08;;;;;;;6.97;2.13;;;-1.40;99.90;;;;;;5111012;28;20712;-54
2024/01/18 09:41:34;;;;;;;5.22;1.98;;;-1.00;99.90;;;;;;5110819;28;20035;-54
2024/01/18 09:44:05;;;;;;;4.95;1.70;;;-0.50;99.90;;;;;;5026741;28;20042;-54
2024/01/18 09:46:31;;;;;;;6.65;2.00;;;-1.10;99.90;;;;;;5091800;28;20462;-55
2024/01/18 09:48:58;;;;;;;7.82;2.17;;;-0.70;99.90;;;;;;5110485;28;20516;-56
2024/01/18 09:51:23;;;;;;;6.95;1.77;;;-0.20;99.90;;;;;;5110374;28;20040;-56
2024/01/18 09:53:55;;;;;;;5.43;1.13;;;0.00;99.90;;;;;;5110987;28;20121;-55
2024/01/18 09:56:27;;;;;;;3.10;1.10;;;-0.40;99.90;;;;;;5029966;28;20037;-52
2024/01/18 09:58:53;;;;;;;4.57;1.50;;;-0.40;99.90;;;;;;5027512;28;20469;-55
2024/01/18 10:01:23;;;;;;;7.78;1.55;;;-0.20;99.90;;;;;;5027620;28;20037;-57
2024/01/18 10:03:49;;;;;;;7.10;1.55;;;-0.20;99.90;;;;;;5027464;28;20048;-52
2024/01/18 10:06:19;;;;;;;4.55;1.35;;;0.50;99.90;;;;;;5074379;28;20036;-52
2024/01/18 10:08:46;;;;;;;4.07;1.25;;;0.60;99.90;;;;;;5110691;28;20056;-55
2024/01/18 10:11:12;;;;;;;8.02;1.10;;;0.10;99.90;;;;;;5110292;28;20460;-56
2024/01/18 10:13:57;;;;;;;5.43;1.23;;;0.30;99.90;;;;;;5112018;28;20035;-54
2024/01/18 10:16:32;;;;;;;5.40;1.10;;;0.20;99.90;;;;;;5114467;28;20036;-53
2024/01/18 10:19:02;;;;;;;4.03;1.00;;;0.80;99.90;;;;;;5113618;28;20047;-52
2024/01/18 10:21:30;;;;;;;4.88;0.88;;;0.40;99.90;;;;;;5107498;27;20044;-55
2024/01/18 10:23:58;;;;;;;6.50;1.23;;;1.30;99.90;;;;;;5114139;28;20036;-55
2024/01/18 10:26:31;;;;;;;5.35;1.02;;;1.60;99.90;;;;;;5113572;28;20036;-53
2024/01/18 10:28:58;;;;;;;5.05;1.05;;;2.20;99.90;;;;;;5113902;28;20055;-57
2024/01/18 10:31:24;;;;;;;8.18;1.98;;;2.20;99.90;;;;;;5105911;28;20437;-54
2024/01/18 10:33:51;;;;;;;9.13;1.58;;;2.80;99.90;;;;;;5033355;28;20124;-53
2024/01/18 10:36:17;;;;;;;8.52;1.45;;;2.80;99.90;;;;;;5063110;28;20046;-55
2024/01/18 10:38:43;;;;;;;4.85;1.45;;;3.10;99.90;;;;;;5113610;28;20031;-53
2024/01/18 10:41:09;;;;;;;5.55;1.50;;;3.40;99.90;;;;;;5113498;28;20062;-50
2024/01/18 10:43:36;;;;;;;4.95;1.13;;;3.80;99.90;;;;;;5114095;28;20077;-55
2024/01/18 10:46:03;;;;;;;6.35;1.42;;;4.00;99.90;;;;;;5110303;27;20435;-52
2024/01/18 10:48:30;;;;;;;6.10;1.52;;;4.10;99.90;;;;;;5113861;28;20044;-55
2024/01/18 10:50:57;;;;;;;6.53;1.50;;;4.30;99.90;;;;;;5113378;28;20524;-54
2024/01/18 10:53:35;;;;;;;4.93;1.30;;;4.10;99.90;;;;;;5113813;28;20493;-56
2024/01/18 10:56:02;;;;;;;9.68;2.40;;;3.70;99.90;;;;;;5113912;28;20122;-50
2024/01/18 10:58:29;;;;;;;6.57;1.58;;;3.40;99.90;;;;;;5108580;28;20047;-52
2024/01/18 11:00:55;;;;;;;7.63;1.70;;;3.50;99.90;;;;;;5109776;28;20114;-56
2024/01/18 11:03:21;;;;;;;8.38;2.08;;;3.80;99.90;;;;;;5101260;28;20110;-55
2024/01/18 11:05:48;;;;;;;5.72;1.40;;;4.00;99.90;;;;;;5105849;28;20059;-55
2024/01/18 11:08:14;;;;;;;4.28;1.58;;;4.10;99.90;;;;;;5109406;28;20035;-53
2024/01/18 11:10:41;;;;;;;9.52;2.20;;;4.30;99.90;;;;;;5113031;28;20062;-54
2024/01/18 11:13:10;;;;;;;7.13;1.67;;;4.30;99.90;;;;;;5112905;27;20039;-57
2024/01/18 11:15:37;;;;;;;6.68;1.50;;;3.70;99.90;;;;;;5113123;28;20039;-54
2024/01/18 11:18:11;;;;;;;7.55;2.00;;;3.60;99.90;;;;;;5113284;28;20043;-52
2024/01/18 11:20:58;;;;;;;11.57;1.95;;;3.50;99.90;;;;;;5112812;27;20040;-52
2024/01/18 11:23:35;;;;;;;7.22;1.75;;;3.50;99.90;;;;;;5113249;27;20046;-57
2024/01/18 11:26:04;;;;;;;8.75;2.55;;;3.30;99.90;;;;;;5103795;28;20039;-53
2024/01/18 11:28:31;;;;;;;8.93;2.13;;;3.60;99.90;;;;;;5112866;28;20070;-55
2024/01/18 11:30:57;;;;;;;7.30;2.13;;;3.60;99.90;;;;;;5113169;28;20086;-56
2024/01/18 11:33:24;;;;;;;10.60;2.33;;;3.50;99.90;;;;;;5112707;28;20039;-55
2024/01/18 11:35:50;;;;;;;10.32;2.58;;;4.00;99.90;;;;;;5112892;28;20501;-55
2024/01/18 11:38:19;;;;;;;13.05;3.65;;;4.30;99.90;;;;;;5113060;28;20036;-54
2024/01/18 11:40:46;;;;;;;7.22;2.10;;;4.80;99.90;;;;;;5029081;28;20098;-55
2024/01/18 11:43:12;;;;;;;5.43;1.80;;;5.10;99.90;;;;;;5029508;28;20077;-56
2024/01/18 11:45:38;;;;;;;7.65;1.88;;;5.30;99.90;;;;;;5073454;28;20035;-57
2024/01/18 11:48:04;;;;;;;7.18;2.25;;;5.50;99.90;;;;;;5112387;28;20100;-54
2024/01/18 11:50:30;;;;;;;6.10;1.88;;;5.30;99.90;;;;;;5111877;28;20394;-54
2024/01/18 11:52:56;;;;;;;7.35;1.63;;;4.80;99.90;;;;;;5112920;28;20028;-55
2024/01/18 11:55:23;;;;;;;5.22;1.63;;;4.10;99.90;;;;;;5112659;28;20114;-55
2024/01/18 11:57:52;;;;;;;5.40;1.58;;;3.80;99.90;;;;;;5112440;28;20058;-57
2024/01/18 12:00:19;;;;;;;8.07;1.40;;;4.00;99.90;;;;;;5106245;28;20035;-53
2024/01/18 12:02:45;;;;;;;5.55;1.10;;;4.60;99.90;;;;;;5031665;28;20064;-57
2024/01/18 12:05:10;;;;;;;4.53;1.35;;;4.60;99.90;;;;;;5028965;28;20041;-54
2024/01/18 12:07:38;;;;;;;3.03;1.10;;;5.10;99.90;;;;;;5029160;28;20413;-55
2024/01/18 12:10:06;;;;;;;4.60;1.10;;;4.80;99.90;;;;;;5028756;28;20045;-56
2024/01/18 12:12:32;;;;;;;4.78;1.20;;;4.30;99.90;;;;;;5028816;28;20052;-57
2024/01/18 12:14:58;;;;;;;5.60;1.30;;;4.00;99.90;;;;;;5029038;28;20041;-54
2024/01/18 12:17:24;;;;;;;5.32;1.27;;;3.80;99.90;;;;;;5028874;28;20068;-57
2024/01/18 12:19:50;;;;;;;5.63;1.10;;;3.40;99.90;;;;;;5028149;28;20117;-53
2024/01/18 12:22:18;;;;;;;3.95;1.08;;;3.50;99.90;;;;;;5066568;28;20046;-56
2024/01/18 12:24:45;;;;;;;6.95;0.88;;;3.30;99.90;;;;;;5111909;28;20110;-55
2024/01/18 12:27:12;;;;;;;5.28;0.63;;;3.20;99.90;;;;;;5111610;28;20027;-50
2024/01/18 12:29:39;;;;;;;2.90;0.60;;;3.10;99.90;;;;;;5111974;28;20030;-55
2024/01/18 12:32:06;;;;;;;1.95;0.70;;;2.90;99.90;;;;;;5111761;28;20067;-56
2024/01/18 12:34:35;;;;;;;4.25;0.70;;;2.80;99.90;;;;;;5111727;27;20047;-55
2024/01/18 12:37:02;;;;;;;3.03;0.80;;;3.00;99.90;;;;;;5111658;28;20096;-58
2024/01/18 12:39:30;;;;;;;3.67;0.80;;;3.30;99.90;;;;;;5112086;28;20039;-55
2024/01/18 12:41:57;;;;;;;3.33;0.77;;;3.40;99.90;;;;;;5106365;28;20036;-58
2024/01/18 12:44:23;;;;;;;2.72;0.50;;;3.60;99.90;;;;;;5111607;28;20463;-58